Terminal Aerodrome Forecast
Issued by NWS

Home | Current Version | Previous Version | Graphics & Text | Print | Product List | Glossary On
Versions: 1 2 3 4 5 6 7 8 9 10 11 12 13 14 15 16
881
FTUS43 KICT 011048 AAB
TAFRSL
TAF AMD
KRSL 011048Z 0111/0206 30013KT P6SM BKN008 OVC015
     FM011400 35017KT P6SM OVC015=

USA.gov is the U.S. government's official web portal to all federal, state and local government web resources and services.